sensor_id;sensor_type;location;lat;lon;timestamp;pressure;altitude;pressure_sealevel;temperature;humidity
73594;BME280;62064;53.406;23.500;2022-10-16T00:02:20;99797.06;;;20.35;63.65
73594;BME280;62064;53.406;23.500;2022-10-16T00:04:46;99808.25;;;20.39;63.72
73594;BME280;62064;53.406;23.500;2022-10-16T00:07:12;99799.53;;;20.37;63.66
73594;BME280;62064;53.406;23.500;2022-10-16T00:09:39;99796.25;;;20.35;63.92
73594;BME280;62064;53.406;23.500;2022-10-16T00:12:04;99802.81;;;20.39;64.01
73594;BME280;62064;53.406;23.500;2022-10-16T00:14:32;99802.56;;;20.40;63.65
73594;BME280;62064;53.406;23.500;2022-10-16T00:16:58;99793.81;;;20.38;64.08
73594;BME280;62064;53.406;23.500;2022-10-16T00:19:24;99802.31;;;20.42;64.18
73594;BME280;62064;53.406;23.500;2022-10-16T00:21:50;99794.41;;;20.40;64.32
73594;BME280;62064;53.406;23.500;2022-10-16T00:24:36;99800.66;;;20.41;64.31
73594;BME280;62064;53.406;23.500;2022-10-16T00:27:03;99805.34;;;20.45;64.76
73594;BME280;62064;53.406;23.500;2022-10-16T00:29:29;99802.03;;;20.43;64.65
73594;BME280;62064;53.406;23.500;2022-10-16T00:31:57;99801.53;;;20.46;64.37
73594;BME280;62064;53.406;23.500;2022-10-16T00:34:24;99809.69;;;20.46;64.49
73594;BME280;62064;53.406;23.500;2022-10-16T00:36:50;99800.41;;;20.42;64.35
73594;BME280;62064;53.406;23.500;2022-10-16T00:39:16;99803.44;;;20.46;64.75
73594;BME280;62064;53.406;23.500;2022-10-16T00:41:42;99808.91;;;20.46;64.93
73594;BME280;62064;53.406;23.500;2022-10-16T00:44:47;99815.47;;;20.50;64.65
73594;BME280;62064;53.406;23.500;2022-10-16T00:47:19;99824.72;;;20.49;65.14
73594;BME280;62064;53.406;23.500;2022-10-16T00:49:50;99819.78;;;20.46;64.46
73594;BME280;62064;53.406;23.500;2022-10-16T00:52:16;99827.97;;;20.46;64.82
73594;BME280;62064;53.406;23.500;2022-10-16T00:54:45;99839.16;;;20.49;64.50
73594;BME280;62064;53.406;23.500;2022-10-16T00:57:14;99814.84;;;20.43;65.02
73594;BME280;62064;53.406;23.500;2022-10-16T00:59:41;99822.53;;;20.51;64.83
73594;BME280;62064;53.406;23.500;2022-10-16T01:02:14;99821.97;;;20.49;64.96
73594;BME280;62064;53.406;23.500;2022-10-16T01:04:47;99827.22;;;20.55;64.77
73594;BME280;62064;53.406;23.500;2022-10-16T01:07:23;99836.78;;;20.58;64.91
73594;BME280;62064;53.406;23.500;2022-10-16T01:15:47;99834.00;;;20.53;65.38
73594;BME280;62064;53.406;23.500;2022-10-16T01:17:51;99841.66;;;20.56;65.39
73594;BME280;62064;53.406;23.500;2022-10-16T01:20:27;99849.88;;;20.61;65.40
73594;BME280;62064;53.406;23.500;2022-10-16T01:28:57;99850.41;;;20.58;64.79
73594;BME280;62064;53.406;23.500;2022-10-16T01:31:29;99862.41;;;20.62;64.99
73594;BME280;62064;53.406;23.500;2022-10-16T01:36:37;99854.50;;;20.60;64.92
73594;BME280;62064;53.406;23.500;2022-10-16T01:39:08;99862.41;;;20.62;65.35
73594;BME280;62064;53.406;23.500;2022-10-16T01:41:46;99850.91;;;20.55;65.21
73594;BME280;62064;53.406;23.500;2022-10-16T01:44:25;99873.31;;;20.62;65.10
73594;BME280;62064;53.406;23.500;2022-10-16T01:46:55;99869.25;;;20.65;65.03
73594;BME280;62064;53.406;23.500;2022-10-16T01:49:23;99869.25;;;20.65;65.14
73594;BME280;62064;53.406;23.500;2022-10-16T01:51:55;99869.50;;;20.63;65.07
73594;BME280;62064;53.406;23.500;2022-10-16T01:54:25;99872.50;;;20.61;65.25
73594;BME280;62064;53.406;23.500;2022-10-16T01:56:55;99872.50;;;20.61;65.24
73594;BME280;62064;53.406;23.500;2022-10-16T01:59:25;99875.47;;;20.60;65.76
73594;BME280;62064;53.406;23.500;2022-10-16T02:01:59;99871.66;;;20.61;65.66
73594;BME280;62064;53.406;23.500;2022-10-16T02:04:39;99880.97;;;20.65;65.49
73594;BME280;62064;53.406;23.500;2022-10-16T02:07:08;99872.75;;;20.60;65.11
73594;BME280;62064;53.406;23.500;2022-10-16T02:09:35;99868.34;;;20.54;65.22
73594;BME280;62064;53.406;23.500;2022-10-16T02:12:17;99886.66;;;20.63;64.98
73594;BME280;62064;53.406;23.500;2022-10-16T02:14:44;99879.25;;;20.59;65.40
73594;BME280;62064;53.406;23.500;2022-10-16T02:17:14;99884.22;;;20.62;65.19
73594;BME280;62064;53.406;23.500;2022-10-16T02:19:42;99876.03;;;20.62;65.60
73594;BME280;62064;53.406;23.500;2022-10-16T02:22:15;99874.91;;;20.58;65.15
73594;BME280;62064;53.406;23.500;2022-10-16T02:24:50;99882.56;;;20.61;65.25
73594;BME280;62064;53.406;23.500;2022-10-16T02:27:33;99877.13;;;20.61;65.73
73594;BME280;62064;53.406;23.500;2022-10-16T02:30:14;99871.66;;;20.61;65.64
73594;BME280;62064;53.406;23.500;2022-10-16T02:32:43;99881.50;;;20.62;65.25
73594;BME280;62064;53.406;23.500;2022-10-16T02:35:12;99862.84;;;20.49;65.45
73594;BME280;62064;53.406;23.500;2022-10-16T02:37:40;99883.38;;;20.61;65.75
73594;BME280;62064;53.406;23.500;2022-10-16T02:40:07;99880.91;;;20.60;65.74
73594;BME280;62064;53.406;23.500;2022-10-16T02:42:37;99857.13;;;20.50;65.48
73594;BME280;62064;53.406;23.500;2022-10-16T02:45:04;99868.38;;;20.59;65.57
73594;BME280;62064;53.406;23.500;2022-10-16T02:47:31;99869.19;;;20.59;65.62
73594;BME280;62064;53.406;23.500;2022-10-16T02:49:58;99859.66;;;20.57;65.47
73594;BME280;62064;53.406;23.500;2022-10-16T02:52:25;99827.06;;;20.40;65.55
73594;BME280;62064;53.406;23.500;2022-10-16T02:54:51;99860.19;;;20.59;65.31
73594;BME280;62064;53.406;23.500;2022-10-16T02:57:41;99855.03;;;20.57;65.93
73594;BME280;62064;53.406;23.500;2022-10-16T03:00:09;99862.91;;;20.59;65.79
73594;BME280;62064;53.406;23.500;2022-10-16T03:02:38;99873.81;;;20.59;65.33
73594;BME280;62064;53.406;23.500;2022-10-16T03:05:05;99872.19;;;20.58;65.07
73594;BME280;62064;53.406;23.500;2022-10-16T03:07:33;99875.69;;;20.53;65.30
73594;BME280;62064;53.406;23.500;2022-10-16T03:10:00;99877.63;;;20.58;65.46
73594;BME280;62064;53.406;23.500;2022-10-16T03:12:27;99880.38;;;20.58;65.25
73594;BME280;62064;53.406;23.500;2022-10-16T03:14:53;99876.00;;;20.57;65.96
73594;BME280;62064;53.406;23.500;2022-10-16T03:17:19;99867.75;;;20.52;65.90
73594;BME280;62064;53.406;23.500;2022-10-16T03:19:46;99876.50;;;20.54;65.55
73594;BME280;62064;53.406;23.500;2022-10-16T03:22:13;99876.50;;;20.54;65.70
73594;BME280;62064;53.406;23.500;2022-10-16T03:24:40;99884.72;;;20.59;65.95
73594;BME280;62064;53.406;23.500;2022-10-16T03:27:06;99883.38;;;20.61;65.95
73594;BME280;62064;53.406;23.500;2022-10-16T03:29:32;99874.38;;;20.61;66.08
73594;BME280;62064;53.406;23.500;2022-10-16T03:31:59;99874.63;;;20.59;66.04
73594;BME280;62064;53.406;23.500;2022-10-16T03:34:25;99869.25;;;20.65;65.89
73594;BME280;62064;53.406;23.500;2022-10-16T03:36:52;99864.56;;;20.60;66.18
73594;BME280;62064;53.406;23.500;2022-10-16T03:39:18;99868.16;;;20.66;66.31
73594;BME280;62064;53.406;23.500;2022-10-16T03:41:45;99848.44;;;20.53;65.70
73594;BME280;62064;53.406;23.500;2022-10-16T03:44:13;99854.75;;;20.59;66.28
73594;BME280;62064;53.406;23.500;2022-10-16T03:46:46;99883.69;;;20.65;66.47
73594;BME280;62064;53.406;23.500;2022-10-16T03:49:16;99880.66;;;20.61;66.11
73594;BME280;62064;53.406;23.500;2022-10-16T03:51:42;99889.13;;;20.65;66.07
73594;BME280;62064;53.406;23.500;2022-10-16T03:54:10;99874.38;;;20.61;66.20
73594;BME280;62064;53.406;23.500;2022-10-16T03:56:36;99876.59;;;20.64;66.65
73594;BME280;62064;53.406;23.500;2022-10-16T03:59:02;99881.50;;;20.67;66.77
73594;BME280;62064;53.406;23.500;2022-10-16T04:01:28;99871.66;;;20.61;66.79
73594;BME280;62064;53.406;23.500;2022-10-16T04:03:54;99871.09;;;20.59;66.67
73594;BME280;62064;53.406;23.500;2022-10-16T04:06:21;99884.81;;;20.69;66.10
73594;BME280;62064;53.406;23.500;2022-10-16T04:08:47;99899.25;;;20.70;66.21
73594;BME280;62064;53.406;23.500;2022-10-16T04:11:13;99892.94;;;20.64;66.07
73594;BME280;62064;53.406;23.500;2022-10-16T04:13:39;99891.28;;;20.63;66.54
73594;BME280;62064;53.406;23.500;2022-10-16T04:16:07;99892.09;;;20.63;66.42
73594;BME280;62064;53.406;23.500;2022-10-16T04:18:36;99877.53;;;20.48;66.80
73594;BME280;62064;53.406;23.500;2022-10-16T04:21:08;99897.84;;;20.67;67.03
73594;BME280;62064;53.406;23.500;2022-10-16T04:23:34;99898.16;;;20.71;66.57
73594;BME280;62064;53.406;23.500;2022-10-16T04:26:01;99903.13;;;20.74;66.57
73594;BME280;62064;53.406;23.500;2022-10-16T04:28:27;99915.63;;;20.75;66.66
73594;BME280;62064;53.406;23.500;2022-10-16T04:30:55;99909.88;;;20.71;66.76
73594;BME280;62064;53.406;23.500;2022-10-16T04:33:21;99921.66;;;20.77;66.43
73594;BME280;62064;53.406;23.500;2022-10-16T04:35:56;99913.97;;;20.69;66.19
73594;BME280;62064;53.406;23.500;2022-10-16T04:38:22;99918.13;;;20.76;66.92
73594;BME280;62064;53.406;23.500;2022-10-16T04:40:49;99918.66;;;20.78;66.96
73594;BME280;62064;53.406;23.500;2022-10-16T04:43:15;99918.41;;;20.80;67.12
73594;BME280;62064;53.406;23.500;2022-10-16T04:45:42;99920.31;;;20.79;67.25
73594;BME280;62064;53.406;23.500;2022-10-16T04:48:09;99914.56;;;20.76;66.74
73594;BME280;62064;53.406;23.500;2022-10-16T04:50:35;99902.81;;;20.70;66.74
73594;BME280;62064;53.406;23.500;2022-10-16T04:53:05;99918.94;;;20.77;67.15
73594;BME280;62064;53.406;23.500;2022-10-16T04:55:32;99906.38;;;20.76;66.88
73594;BME280;62064;53.406;23.500;2022-10-16T04:57:58;99913.19;;;20.73;66.63
73594;BME280;62064;53.406;23.500;2022-10-16T05:00:24;99911.53;;;20.72;67.01
73594;BME280;62064;53.406;23.500;2022-10-16T05:02:50;99915.09;;;20.73;66.85
73594;BME280;62064;53.406;23.500;2022-10-16T05:05:17;99918.06;;;20.71;66.65
73594;BME280;62064;53.406;23.500;2022-10-16T05:07:46;99901.94;;;20.65;66.84
73594;BME280;62064;53.406;23.500;2022-10-16T05:10:13;99915.84;;;20.68;67.06
73594;BME280;62064;53.406;23.500;2022-10-16T05:12:39;99922.13;;;20.69;66.58
73594;BME280;62064;53.406;23.500;2022-10-16T05:15:08;99924.28;;;20.67;67.13
73594;BME280;62064;53.406;23.500;2022-10-16T05:17:34;99928.41;;;20.69;66.72
73594;BME280;62064;53.406;23.500;2022-10-16T05:20:00;99912.81;;;20.65;66.92
73594;BME280;62064;53.406;23.500;2022-10-16T05:22:26;99924.03;;;20.68;66.84
73594;BME280;62064;53.406;23.500;2022-10-16T05:24:52;99921.81;;;20.65;66.70
73594;BME280;62064;53.406;23.500;2022-10-16T05:27:19;99918.28;;;20.65;66.57
73594;BME280;62064;53.406;23.500;2022-10-16T05:29:46;99927.28;;;20.65;67.13
73594;BME280;62064;53.406;23.500;2022-10-16T05:32:14;99923.59;;;20.54;66.64
73594;BME280;62064;53.406;23.500;2022-10-16T05:34:42;99932.66;;;20.60;66.73
73594;BME280;62064;53.406;23.500;2022-10-16T05:37:09;99932.72;;;20.65;67.23
73594;BME280;62064;53.406;23.500;2022-10-16T05:39:35;99939.19;;;20.59;66.82
73594;BME280;62064;53.406;23.500;2022-10-16T05:42:03;99952.88;;;20.64;67.16
73594;BME280;62064;53.406;23.500;2022-10-16T05:44:30;99948.75;;;20.61;67.03
73594;BME280;62064;53.406;23.500;2022-10-16T05:46:57;99944.13;;;20.62;67.09
73594;BME280;62064;53.406;23.500;2022-10-16T05:49:24;99932.59;;;20.55;67.25
73594;BME280;62064;53.406;23.500;2022-10-16T05:51:51;99935.91;;;20.57;67.06
73594;BME280;62064;53.406;23.500;2022-10-16T05:54:18;99943.56;;;20.60;67.34
73594;BME280;62064;53.406;23.500;2022-10-16T05:56:44;99946.81;;;20.57;67.33
73594;BME280;62064;53.406;23.500;2022-10-16T05:59:13;99944.63;;;20.59;66.61
73594;BME280;62064;53.406;23.500;2022-10-16T06:01:39;99946.81;;;20.57;67.05
73594;BME280;62064;53.406;23.500;2022-10-16T06:04:06;99950.66;;;20.61;67.01
73594;BME280;62064;53.406;23.500;2022-10-16T06:06:32;99948.41;;;20.53;67.01
73594;BME280;62064;53.406;23.500;2022-10-16T06:08:59;99968.06;;;20.60;67.12
73594;BME280;62064;53.406;23.500;2022-10-16T06:11:28;99970.81;;;20.60;67.17
73594;BME280;62064;53.406;23.500;2022-10-16T06:13:57;99968.28;;;20.53;67.36
73594;BME280;62064;53.406;23.500;2022-10-16T06:16:24;99968.06;;;20.60;66.89
73594;BME280;62064;53.406;23.500;2022-10-16T06:18:52;99971.56;;;20.55;67.17
73594;BME280;62064;53.406;23.500;2022-10-16T06:21:23;99984.41;;;20.60;66.92
73594;BME280;62064;53.406;23.500;2022-10-16T06:23:54;99972.63;;;20.54;66.83
73594;BME280;62064;53.406;23.500;2022-10-16T06:26:23;99981.63;;;20.55;67.18
73594;BME280;62064;53.406;23.500;2022-10-16T06:28:50;99993.94;;;20.57;67.01
73594;BME280;62064;53.406;23.500;2022-10-16T06:31:17;100011.16;;;20.63;67.11
73594;BME280;62064;53.406;23.500;2022-10-16T06:33:43;99992.84;;;20.58;67.21
73594;BME280;62064;53.406;23.500;2022-10-16T06:36:13;99990.94;;;20.59;66.99
73594;BME280;62064;53.406;23.500;2022-10-16T06:38:40;99975.34;;;20.54;67.53
73594;BME280;62064;53.406;23.500;2022-10-16T06:41:07;100002.16;;;20.62;67.14
73594;BME280;62064;53.406;23.500;2022-10-16T06:43:34;100002.13;;;20.57;67.40
73594;BME280;62064;53.406;23.500;2022-10-16T06:46:05;100009.75;;;20.60;67.25
73594;BME280;62064;53.406;23.500;2022-10-16T06:48:33;100002.59;;;20.54;67.62
73594;BME280;62064;53.406;23.500;2022-10-16T06:53:27;100011.78;;;20.70;68.05
73594;BME280;62064;53.406;23.500;2022-10-16T06:55:54;100025.72;;;20.74;67.86
73594;BME280;62064;53.406;23.500;2022-10-16T06:58:21;100022.16;;;20.73;67.77
73594;BME280;62064;53.406;23.500;2022-10-16T07:00:47;100011.22;;;20.68;67.29
73594;BME280;62064;53.406;23.500;2022-10-16T07:03:14;100021.59;;;20.71;67.39
73594;BME280;62064;53.406;23.500;2022-10-16T07:05:43;100031.97;;;20.74;67.54
73594;BME280;62064;53.406;23.500;2022-10-16T07:08:10;100024.31;;;20.71;67.97
73594;BME280;62064;53.406;23.500;2022-10-16T07:10:36;100018.03;;;20.71;67.89
73594;BME280;62064;53.406;23.500;2022-10-16T07:13:02;100011.78;;;20.70;67.94
73594;BME280;62064;53.406;23.500;2022-10-16T07:15:29;100033.09;;;20.78;68.16
73594;BME280;62064;53.406;23.500;2022-10-16T07:17:56;100028.44;;;20.74;68.02
73594;BME280;62064;53.406;23.500;2022-10-16T07:20:22;100040.13;;;20.74;68.12
73594;BME280;62064;53.406;23.500;2022-10-16T07:22:48;100041.78;;;20.75;68.01
73594;BME280;62064;53.406;23.500;2022-10-16T07:25:14;100042.31;;;20.72;68.10
73594;BME280;62064;53.406;23.500;2022-10-16T07:27:40;100044.78;;;20.74;68.40
73594;BME280;62064;53.406;23.500;2022-10-16T07:30:08;100051.03;;;20.74;68.03
73594;BME280;62064;53.406;23.500;2022-10-16T07:32:34;100042.84;;;20.69;68.21
73594;BME280;62064;53.406;23.500;2022-10-16T07:35:00;100048.91;;;20.76;67.92
73594;BME280;62064;53.406;23.500;2022-10-16T07:37:27;100046.09;;;20.71;65.63
73594;BME280;62064;53.406;23.500;2022-10-16T07:39:53;100053.41;;;20.66;65.28
73594;BME280;62064;53.406;23.500;2022-10-16T07:42:24;100042.06;;;20.52;65.35
73594;BME280;62064;53.406;23.500;2022-10-16T07:44:50;100057.72;;;20.61;65.12
73594;BME280;62064;53.406;23.500;2022-10-16T07:47:17;100056.06;;;20.60;64.86
73594;BME280;62064;53.406;23.500;2022-10-16T07:49:43;100051.63;;;20.54;63.72
73594;BME280;62064;53.406;23.500;2022-10-16T07:52:09;100044.78;;;20.52;63.50
73594;BME280;62064;53.406;23.500;2022-10-16T07:54:35;100054.34;;;20.54;62.23
73594;BME280;62064;53.406;23.500;2022-10-16T07:57:02;100057.03;;;20.49;62.02
73594;BME280;62064;53.406;23.500;2022-10-16T07:59:28;100057.84;;;20.50;62.36
73594;BME280;62064;53.406;23.500;2022-10-16T08:01:56;100054.78;;;20.46;62.36
73594;BME280;62064;53.406;23.500;2022-10-16T08:04:23;100052.06;;;20.46;62.03
73594;BME280;62064;53.406;23.500;2022-10-16T08:06:50;100052.34;;;20.45;62.59
73594;BME280;62064;53.406;23.500;2022-10-16T08:09:18;100052.34;;;20.45;62.58
73594;BME280;62064;53.406;23.500;2022-10-16T08:11:46;100060.75;;;20.43;61.83
73594;BME280;62064;53.406;23.500;2022-10-16T08:14:12;100049.53;;;20.40;62.72
73594;BME280;62064;53.406;23.500;2022-10-16T08:16:39;100056.66;;;20.41;62.90
73594;BME280;62064;53.406;23.500;2022-10-16T08:19:08;100050.56;;;20.34;62.79
73594;BME280;62064;53.406;23.500;2022-10-16T08:21:34;100052.69;;;20.32;62.22
73594;BME280;62064;53.406;23.500;2022-10-16T08:24:03;100052.69;;;20.32;62.81
73594;BME280;62064;53.406;23.500;2022-10-16T08:26:29;100058.16;;;20.32;62.44
73594;BME280;62064;53.406;23.500;2022-10-16T08:28:56;100060.34;;;20.35;63.30
73594;BME280;62064;53.406;23.500;2022-10-16T08:31:22;100057.59;;;20.30;63.73
73594;BME280;62064;53.406;23.500;2022-10-16T08:33:50;100068.53;;;20.35;63.97
73594;BME280;62064;53.406;23.500;2022-10-16T08:36:18;100062.28;;;20.34;63.76
73594;BME280;62064;53.406;23.500;2022-10-16T08:38:47;100056.84;;;20.34;63.94
73594;BME280;62064;53.406;23.500;2022-10-16T08:49:22;100051.53;;;20.28;63.43
73594;BME280;62064;53.406;23.500;2022-10-16T08:51:51;100051.53;;;20.28;62.84
73594;BME280;62064;53.406;23.500;2022-10-16T08:54:26;100067.16;;;20.32;63.90
73594;BME280;62064;53.406;23.500;2022-10-16T08:57:17;100060.75;;;20.27;63.52
73594;BME280;62064;53.406;23.500;2022-10-16T08:59:47;100074.75;;;20.30;63.39
73594;BME280;62064;53.406;23.500;2022-10-16T09:02:38;100056.34;;;20.21;63.66
73594;BME280;62064;53.406;23.500;2022-10-16T09:08:17;100079.75;;;20.38;64.24
73594;BME280;62064;53.406;23.500;2022-10-16T09:21:21;100071.03;;;20.58;65.34
73594;BME280;62064;53.406;23.500;2022-10-16T09:24:19;100063.63;;;20.53;65.20
73594;BME280;62064;53.406;23.500;2022-10-16T09:26:52;100051.63;;;20.54;63.07
73594;BME280;62064;53.406;23.500;2022-10-16T09:29:21;100063.66;;;20.58;63.93
73594;BME280;62064;53.406;23.500;2022-10-16T09:31:49;100065.63;;;20.63;64.35
73594;BME280;62064;53.406;23.500;2022-10-16T09:34:30;100059.69;;;20.66;64.88
73594;BME280;62064;53.406;23.500;2022-10-16T09:37:04;100056.38;;;20.64;64.76
73594;BME280;62064;53.406;23.500;2022-10-16T09:39:48;100060.25;;;20.68;64.83
73594;BME280;62064;53.406;23.500;2022-10-16T09:42:28;100067.91;;;20.71;64.53
73594;BME280;62064;53.406;23.500;2022-10-16T09:44:58;100066.00;;;20.72;64.76
73594;BME280;62064;53.406;23.500;2022-10-16T09:47:26;100054.03;;;20.73;64.24
73594;BME280;62064;53.406;23.500;2022-10-16T09:49:57;100048.59;;;20.73;64.16
73594;BME280;62064;53.406;23.500;2022-10-16T09:52:25;100051.00;;;20.69;63.53
73594;BME280;62064;53.406;23.500;2022-10-16T09:54:59;100071.22;;;20.73;64.40
73594;BME280;62064;53.406;23.500;2022-10-16T09:57:26;100073.66;;;20.75;64.70
73594;BME280;62064;53.406;23.500;2022-10-16T09:59:54;100072.34;;;20.77;64.16
73594;BME280;62064;53.406;23.500;2022-10-16T10:02:34;100050.50;;;20.72;64.01
73594;BME280;62064;53.406;23.500;2022-10-16T10:05:04;100049.97;;;20.75;63.91
73594;BME280;62064;53.406;23.500;2022-10-16T10:07:38;100039.03;;;20.70;63.94
73594;BME280;62064;53.406;23.500;2022-10-16T10:10:28;100052.38;;;20.72;62.50
73594;BME280;62064;53.406;23.500;2022-10-16T10:12:55;100041.41;;;20.67;62.98
73594;BME280;62064;53.406;23.500;2022-10-16T10:15:23;100044.41;;;20.65;62.79
73594;BME280;62064;53.406;23.500;2022-10-16T10:17:52;100047.13;;;20.65;63.72
73594;BME280;62064;53.406;23.500;2022-10-16T10:20:29;100045.78;;;20.68;63.55
73594;BME280;62064;53.406;23.500;2022-10-16T10:22:56;100033.75;;;20.63;63.53
73594;BME280;62064;53.406;23.500;2022-10-16T10:26:04;100052.59;;;20.65;63.41
73594;BME280;62064;53.406;23.500;2022-10-16T10:34:48;100051.44;;;20.61;62.58
73594;BME280;62064;53.406;23.500;2022-10-16T10:50:56;100044.25;;;20.50;61.05
73594;BME280;62064;53.406;23.500;2022-10-16T10:53:44;100045.31;;;20.49;60.78
73594;BME280;62064;53.406;23.500;2022-10-16T10:59:21;100045.47;;;20.42;60.75
73594;BME280;62064;53.406;23.500;2022-10-16T11:01:58;100043.09;;;20.46;60.82
73594;BME280;62064;53.406;23.500;2022-10-16T11:04:45;100033.28;;;20.45;60.76
73594;BME280;62064;53.406;23.500;2022-10-16T11:07:31;100028.81;;;20.39;60.33
73594;BME280;62064;53.406;23.500;2022-10-16T11:10:13;100025.28;;;20.38;60.49
73594;BME280;62064;53.406;23.500;2022-10-16T11:12:42;100022.91;;;20.42;60.39
73594;BME280;62064;53.406;23.500;2022-10-16T11:20:18;100038.09;;;20.38;60.33
73594;BME280;62064;53.406;23.500;2022-10-16T11:22:53;100040.00;;;20.37;60.18
73594;BME280;62064;53.406;23.500;2022-10-16T11:25:31;100035.84;;;20.35;60.75
73594;BME280;62064;53.406;23.500;2022-10-16T11:28:17;100039.09;;;20.32;60.55
73594;BME280;62064;53.406;23.500;2022-10-16T11:30:54;100031.44;;;20.29;60.19
73594;BME280;62064;53.406;23.500;2022-10-16T11:36:39;100040.75;;;20.33;60.65
73594;BME280;62064;53.406;23.500;2022-10-16T11:39:26;100041.25;;;20.30;60.54
73594;BME280;62064;53.406;23.500;2022-10-16T11:50:02;100026.72;;;20.24;60.35
73594;BME280;62064;53.406;23.500;2022-10-16T11:52:48;100027.53;;;20.25;60.54
73594;BME280;62064;53.406;23.500;2022-10-16T11:55:32;100026.94;;;20.23;60.42
73594;BME280;62064;53.406;23.500;2022-10-16T11:58:29;100031.91;;;20.26;60.36
73594;BME280;62064;53.406;23.500;2022-10-16T12:08:43;100029.19;;;20.26;60.36
73594;BME280;62064;53.406;23.500;2022-10-16T12:16:39;100038.94;;;20.22;59.86
73594;BME280;62064;53.406;23.500;2022-10-16T12:19:23;100046.28;;;20.21;60.15
73594;BME280;62064;53.406;23.500;2022-10-16T12:21:56;100054.19;;;20.23;59.98
73594;BME280;62064;53.406;23.500;2022-10-16T12:26:52;100049.81;;;20.22;60.29
73594;BME280;62064;53.406;23.500;2022-10-16T12:32:27;100056.34;;;20.21;60.37
73594;BME280;62064;53.406;23.500;2022-10-16T12:34:50;100046.53;;;20.20;60.64
73594;BME280;62064;53.406;23.500;2022-10-16T12:37:32;100054.97;;;20.18;60.27
73594;BME280;62064;53.406;23.500;2022-10-16T12:39:59;100054.13;;;20.17;60.19
73594;BME280;62064;53.406;23.500;2022-10-16T12:42:38;100046.94;;;20.11;60.52
73594;BME280;62064;53.406;23.500;2022-10-16T12:45:43;100060.63;;;20.16;60.15
73594;BME280;62064;53.406;23.500;2022-10-16T12:48:21;100049.44;;;20.13;60.52
73594;BME280;62064;53.406;23.500;2022-10-16T12:50:48;100047.03;;;20.16;60.25
73594;BME280;62064;53.406;23.500;2022-10-16T12:53:23;100059.81;;;20.16;60.59
73594;BME280;62064;53.406;23.500;2022-10-16T13:00:56;100042.91;;;20.14;60.60
73594;BME280;62064;53.406;23.500;2022-10-16T13:14:01;100068.22;;;20.14;60.19
73594;BME280;62064;53.406;23.500;2022-10-16T13:28:08;100055.13;;;20.11;59.70
73594;BME280;62064;53.406;23.500;2022-10-16T13:30:51;100058.66;;;20.12;59.74
73594;BME280;62064;53.406;23.500;2022-10-16T13:33:33;100063.28;;;20.11;60.05
73594;BME280;62064;53.406;23.500;2022-10-16T13:36:02;100057.28;;;20.09;60.18
73594;BME280;62064;53.406;23.500;2022-10-16T13:38:35;100062.97;;;20.08;60.16
73594;BME280;62064;53.406;23.500;2022-10-16T13:41:14;100064.63;;;20.09;60.11
73594;BME280;62064;53.406;23.500;2022-10-16T13:43:46;100066.44;;;20.03;60.09
73594;BME280;62064;53.406;23.500;2022-10-16T13:46:16;100075.50;;;20.09;59.20
73594;BME280;62064;53.406;23.500;2022-10-16T13:48:44;100070.31;;;20.07;59.17
73594;BME280;62064;53.406;23.500;2022-10-16T13:51:14;100072.78;;;20.09;59.49
73594;BME280;62064;53.406;23.500;2022-10-16T13:53:47;100061.56;;;20.05;60.29
73594;BME280;62064;53.406;23.500;2022-10-16T13:56:30;100071.94;;;20.08;59.84
73594;BME280;62064;53.406;23.500;2022-10-16T14:01:35;100057.53;;;20.08;60.25
73594;BME280;62064;53.406;23.500;2022-10-16T14:04:22;100063.78;;;20.08;60.69
73594;BME280;62064;53.406;23.500;2022-10-16T14:06:51;100053.91;;;20.02;60.59
73594;BME280;62064;53.406;23.500;2022-10-16T14:09:24;100054.78;;;20.08;60.68
73594;BME280;62064;53.406;23.500;2022-10-16T14:11:57;100055.88;;;20.07;60.16
73594;BME280;62064;53.406;23.500;2022-10-16T14:14:35;100054.25;;;20.06;60.56
73594;BME280;62064;53.406;23.500;2022-10-16T14:17:05;100055.03;;;20.06;60.53
73594;BME280;62064;53.406;23.500;2022-10-16T14:19:35;100054.72;;;20.03;60.73
73594;BME280;62064;53.406;23.500;2022-10-16T14:27:45;100059.69;;;20.06;60.47
73594;BME280;62064;53.406;23.500;2022-10-16T14:30:18;100057.19;;;20.04;60.58
73594;BME280;62064;53.406;23.500;2022-10-16T14:33:05;100067.03;;;20.05;60.99
73594;BME280;62064;53.406;23.500;2022-10-16T14:35:37;100069.75;;;20.05;60.49
73594;BME280;62064;53.406;23.500;2022-10-16T14:38:06;100074.09;;;20.06;60.95
73594;BME280;62064;53.406;23.500;2022-10-16T14:40:47;100074.34;;;20.05;60.47
73594;BME280;62064;53.406;23.500;2022-10-16T14:43:22;100070.81;;;20.04;60.71
73594;BME280;62064;53.406;23.500;2022-10-16T14:45:54;100064.22;;;20.00;60.46
73594;BME280;62064;53.406;23.500;2022-10-16T14:48:21;100070.25;;;20.02;60.54
73594;BME280;62064;53.406;23.500;2022-10-16T14:50:48;100073.53;;;20.04;60.49
73594;BME280;62064;53.406;23.500;2022-10-16T14:53:14;100069.41;;;20.02;60.83
73594;BME280;62064;53.406;23.500;2022-10-16T14:55:42;100077.31;;;20.03;60.92
73594;BME280;62064;53.406;23.500;2022-10-16T15:00:42;100075.34;;;19.99;60.79
73594;BME280;62064;53.406;23.500;2022-10-16T15:03:14;100081.13;;;20.02;60.54
73594;BME280;62064;53.406;23.500;2022-10-16T15:05:40;100087.38;;;20.03;60.33
73594;BME280;62064;53.406;23.500;2022-10-16T15:08:06;100080.53;;;20.00;60.72
73594;BME280;62064;53.406;23.500;2022-10-16T15:10:41;100091.19;;;20.02;60.36
73594;BME280;62064;53.406;23.500;2022-10-16T15:13:12;100088.72;;;20.00;60.10
73594;BME280;62064;53.406;23.500;2022-10-16T15:15:45;100098.78;;;20.00;60.66
73594;BME280;62064;53.406;23.500;2022-10-16T15:18:12;100100.44;;;20.01;60.41